עמוד ראשי
METAR-TAF:

METAR-TAF

שדות תעופה :

בסיס טיסה

איסמעיליה, מצרים

קו רוחב: 30-35-54N, קו אורך: 032-14-13E, גובה: 13מטר

תצפית מזג אוויר נוכחית

הדו"ח נערך לפני 7 שעות ו 38דקות, בשעה 15:00 UTC
רוח 8קשר מכיוון צפון
טמפרטורת 35 צלסיוס
לחות 42%
לחץ 1006 hPa
ראות 10 קילומטר או יותר
ללא עננים שבסיסם נמוך מ 5000 רגל או קומולונימבוס

METAR: HEIS 251500Z 35008KT CAVOK 35/20 Q1006

זמן: 00:38 (22:38 UTC)


TAF: חסר

תצפיות ותחזיות מזג אוויר לגבי יותר מ- 4,000 שדות תעופה ברחבי העולם. דוחות METAR ו- TAF.

התחנות הזמינות מסומנות בנקודות צהובות ואדומות על גבי המפה.

העבר את העכבר לנקודה הצבעונית על מנת לראות את שם התחנה.

לאחר מכן, לחץ כדי לראות את תוכן ואת תחזיות מזג האוויר.

כדי לשנות את המפה: לחץ על הכפתורים הירוקים עם הפלוס השחור כדי להתקרב; על הכפתור הירוק עם המקף כדי להתרחק; או בחיצים הירוקים למפות סמוכות.


METAR-TAF: